Terminal Aerodrome Forecast
Issued by NWS

Home | Current Version | Previous Version | Text Only | Print | Product List | Glossary On
Versions: 1 2 3 4 5 6 7 8 9 10 11 12 13 14 15 16
418
FTUS42 KTBW 241927 AAA
TAFRSW
TAF AMD
KRSW 241927Z 2419/2518 36006KT P6SM SCT020 OVC040
      TEMPO 2419/2421 P6SM BKN025 OVC040
     FM251000 01004KT 5SM BR SCT250
     FM251200 02004KT 3SM BR BKN020 BKN250
     FM251300 02004KT P6SM FEW070 SCT250=

USA.gov is the U.S. government's official web portal to all federal, state and local government web resources and services.